createdAt,value
2023-05-11T00:00:04.924Z,100588.34
2023-05-11T00:03:08.190Z,100591.81
2023-05-11T00:06:11.068Z,100572.91
2023-05-11T00:09:13.503Z,100589.53
2023-05-11T00:12:16.145Z,100562.00
2023-05-11T00:15:18.728Z,100594.84
2023-05-11T00:18:21.547Z,100557.78
2023-05-11T00:21:24.017Z,100570.13
2023-05-11T00:24:26.528Z,100588.28
2023-05-11T00:27:28.851Z,100588.72
2023-05-11T00:30:31.422Z,100595.75
2023-05-11T00:33:33.820Z,100566.31
2023-05-11T00:36:41.135Z,100556.91
2023-05-11T00:39:44.125Z,100536.25
2023-05-11T00:42:46.492Z,100600.84
2023-05-11T00:45:49.853Z,100564.50
2023-05-11T00:48:52.223Z,100572.50
2023-05-11T00:51:55.085Z,100570.81
2023-05-11T00:54:57.521Z,100603.09
2023-05-11T00:58:00.463Z,100581.06
2023-05-11T01:01:02.909Z,100598.56
2023-05-11T01:04:05.907Z,100580.63
2023-05-11T01:07:14.634Z,100599.56
2023-05-11T01:10:34.949Z,100592.81
2023-05-11T01:13:46.059Z,100600.16
2023-05-11T01:16:53.342Z,100560.81
2023-05-11T01:20:06.424Z,100567.50
2023-05-11T01:23:09.304Z,100603.06
2023-05-11T01:26:35.270Z,100602.44
2023-05-11T01:29:46.667Z,100600.03
2023-05-11T01:32:49.252Z,100594.09
2023-05-11T01:35:56.590Z,100585.56
2023-05-11T01:39:04.371Z,100583.78
2023-05-11T01:42:10.608Z,100571.09
2023-05-11T01:45:15.582Z,100557.59
2023-05-11T01:48:23.069Z,100587.53
2023-05-11T01:51:34.204Z,100589.91
2023-05-11T01:54:38.727Z,100584.31
2023-05-11T01:57:41.542Z,100591.81
2023-05-11T02:00:45.292Z,100595.91
2023-05-11T02:03:50.113Z,100601.31
2023-05-11T02:06:53.323Z,100585.75
2023-05-11T02:09:57.572Z,100603.25
2023-05-11T02:13:03.008Z,100606.25
2023-05-11T02:16:06.728Z,100576.75
2023-05-11T02:19:09.718Z,100605.78
2023-05-11T02:22:13.328Z,100603.41
2023-05-11T02:25:16.786Z,100599.84
2023-05-11T02:28:19.914Z,100600.84
2023-05-11T02:31:30.420Z,100606.50
2023-05-11T02:34:41.062Z,100583.16
2023-05-11T02:37:46.629Z,100550.09
2023-05-11T02:40:57.740Z,100609.22
2023-05-11T02:44:05.208Z,100599.19
2023-05-11T02:47:15.031Z,100581.34
2023-05-11T02:50:19.054Z,100574.91
2023-05-11T02:53:25.707Z,100599.56
2023-05-11T02:56:29.598Z,100596.53
2023-05-11T02:59:33.104Z,100581.34
2023-05-11T03:02:35.633Z,100615.88
2023-05-11T03:05:38.548Z,100578.19
2023-05-11T03:08:42.134Z,100613.91
2023-05-11T03:11:45.895Z,100594.50
2023-05-11T03:14:49.309Z,100609.97
2023-05-11T03:17:53.181Z,100624.72
2023-05-11T03:20:57.138Z,100600.25
2023-05-11T03:24:00.834Z,100624.31
2023-05-11T03:27:05.938Z,100602.34
2023-05-11T03:30:09.952Z,100605.13
2023-05-11T03:33:16.730Z,100610.25
2023-05-11T03:36:21.690Z,100612.81
2023-05-11T03:39:25.494Z,100634.03
2023-05-11T03:42:30.997Z,100640.88
2023-05-11T03:45:35.444Z,100606.69
2023-05-11T03:48:42.478Z,100641.41
2023-05-11T03:51:45.594Z,100631.84
2023-05-11T03:54:48.466Z,100621.72
2023-05-11T03:57:51.220Z,100594.31
2023-05-11T04:00:53.917Z,100633.91
2023-05-11T04:03:56.590Z,100609.13
2023-05-11T04:06:59.871Z,100615.84
2023-05-11T04:10:03.566Z,100624.84
2023-05-11T04:13:06.221Z,100628.59
2023-05-11T04:16:08.959Z,100629.13
2023-05-11T04:19:11.462Z,100655.88
2023-05-11T04:22:13.893Z,100665.91
2023-05-11T04:25:16.655Z,100640.13
2023-05-11T04:28:19.056Z,100629.88
2023-05-11T04:31:21.461Z,100660.25
2023-05-11T04:34:24.114Z,100661.84
2023-05-11T04:37:26.641Z,100659.31
2023-05-11T04:40:29.613Z,100632.19
2023-05-11T04:43:32.185Z,100632.16
2023-05-11T04:46:35.128Z,100643.94
2023-05-11T04:49:37.684Z,100660.78
2023-05-11T04:52:40.374Z,100648.72
2023-05-11T04:55:43.514Z,100668.31
2023-05-11T04:58:46.093Z,100635.63
2023-05-11T05:01:48.442Z,100645.81
2023-05-11T05:04:51.049Z,100671.34
2023-05-11T05:07:53.465Z,100656.00
2023-05-11T05:10:55.886Z,100650.59
2023-05-11T05:13:58.269Z,100636.63
2023-05-11T05:17:01.606Z,100640.72
2023-05-11T05:20:05.617Z,100666.25
2023-05-11T05:23:08.013Z,100652.75
2023-05-11T05:26:10.743Z,100655.63
2023-05-11T05:29:14.480Z,100651.56
2023-05-11T05:32:17.052Z,100682.88
2023-05-11T05:35:19.513Z,100687.16
2023-05-11T05:38:21.971Z,100678.34
2023-05-11T05:41:25.653Z,100680.22
2023-05-11T05:44:28.334Z,100683.84
2023-05-11T05:47:31.032Z,100657.66
2023-05-11T05:50:33.635Z,100640.66
2023-05-11T05:53:36.300Z,100667.78
2023-05-11T05:56:40.828Z,100692.94
2023-05-11T05:59:43.463Z,100693.59
2023-05-11T06:02:46.102Z,100687.72
2023-05-11T06:05:57.333Z,100672.72
2023-05-11T06:09:00.032Z,100686.88
2023-05-11T06:12:02.619Z,100691.91
2023-05-11T06:15:07.731Z,100668.75
2023-05-11T06:18:13.341Z,100689.84
2023-05-11T06:21:19.405Z,100666.13
2023-05-11T06:24:22.201Z,100698.56
2023-05-11T06:27:24.742Z,100679.59
2023-05-11T06:30:31.392Z,100691.94
2023-05-11T06:33:34.570Z,100688.03
2023-05-11T06:36:37.631Z,100695.81
2023-05-11T06:39:42.135Z,100697.38
2023-05-11T06:42:45.016Z,100683.94
2023-05-11T06:45:48.027Z,100688.09
2023-05-11T06:48:50.893Z,100709.31
2023-05-11T06:51:53.987Z,100713.75
2023-05-11T06:54:57.971Z,100708.34
2023-05-11T06:58:00.375Z,100703.25
2023-05-11T07:01:05.443Z,100707.94
2023-05-11T07:04:07.927Z,100700.50
2023-05-11T07:07:12.284Z,100701.41
2023-05-11T07:10:14.782Z,100660.66
2023-05-11T07:13:17.151Z,100678.78
2023-05-11T07:16:19.633Z,100666.78
2023-05-11T07:19:22.045Z,100657.50
2023-05-11T07:22:24.491Z,100650.53
2023-05-11T07:25:26.949Z,100666.28
2023-05-11T07:28:29.342Z,100672.09
2023-05-11T07:31:32.453Z,100695.38
2023-05-11T07:34:34.892Z,100679.25
2023-05-11T07:37:37.529Z,100697.94
2023-05-11T07:40:39.988Z,100704.44
2023-05-11T07:43:42.388Z,100669.91
2023-05-11T07:46:44.796Z,100695.03
2023-05-11T07:49:50.382Z,100695.44
2023-05-11T07:52:53.109Z,100680.09
2023-05-11T07:55:55.598Z,100692.75
2023-05-11T07:58:58.053Z,100702.34
2023-05-11T08:02:00.585Z,100689.13
2023-05-11T08:05:03.018Z,100697.22
2023-05-11T08:08:05.643Z,100695.03
2023-05-11T08:11:08.896Z,100698.19
2023-05-11T08:14:11.270Z,100697.78
2023-05-11T08:17:13.673Z,100692.75
2023-05-11T08:20:16.253Z,100691.47
2023-05-11T08:23:18.771Z,100692.19
2023-05-11T08:26:21.485Z,100659.88
2023-05-11T08:29:27.271Z,100671.00
2023-05-11T08:32:30.492Z,100660.75
2023-05-11T08:35:33.050Z,100678.44
2023-05-11T08:38:36.582Z,100673.25
2023-05-11T08:41:38.935Z,100676.44
2023-05-11T08:44:43.808Z,100677.09
2023-05-11T08:47:47.422Z,100658.94
2023-05-11T08:50:49.869Z,100665.56
2023-05-11T08:53:53.229Z,100659.25
2023-05-11T08:56:56.215Z,100669.78
2023-05-11T09:00:01.808Z,100667.41
2023-05-11T09:03:04.943Z,100650.72
2023-05-11T09:06:08.554Z,100663.56
2023-05-11T09:09:11.232Z,100677.38
2023-05-11T09:12:14.302Z,100648.69
2023-05-11T09:15:16.791Z,100642.47
2023-05-11T09:18:19.290Z,100629.38
2023-05-11T09:21:25.099Z,100652.56
2023-05-11T09:24:28.049Z,100653.09
2023-05-11T09:27:30.424Z,100587.06
2023-05-11T09:30:34.029Z,100644.75
2023-05-11T09:33:36.364Z,100642.69
2023-05-11T09:36:39.058Z,100631.00
2023-05-11T09:40:04.798Z,100625.47
2023-05-11T09:43:28.432Z,100649.09
2023-05-11T09:46:31.034Z,100642.53
2023-05-11T09:49:33.647Z,100622.56
2023-05-11T09:52:50.788Z,100608.78
2023-05-11T09:55:55.490Z,100604.69
2023-05-11T09:58:58.366Z,100614.94
2023-05-11T10:02:28.562Z,100611.41
2023-05-11T10:05:33.160Z,100598.28
2023-05-11T10:08:35.768Z,100590.31
2023-05-11T10:11:49.537Z,100600.78
2023-05-11T10:14:56.446Z,100590.53
2023-05-11T10:18:02.629Z,100600.34
2023-05-11T10:21:05.409Z,100596.72
2023-05-11T10:24:08.425Z,100587.66
2023-05-11T10:27:12.566Z,100569.91
2023-05-11T10:30:16.094Z,100575.41
2023-05-11T10:33:18.643Z,100571.72
2023-05-11T10:36:23.854Z,100561.34
2023-05-11T10:39:26.452Z,100578.66
2023-05-11T10:42:50.356Z,100576.19
2023-05-11T10:46:08.789Z,100568.66
2023-05-11T10:49:38.255Z,100549.28
2023-05-11T10:52:54.409Z,100544.38
2023-05-11T10:55:56.694Z,100560.34
2023-05-11T10:59:13.933Z,100557.59
2023-05-11T11:02:18.755Z,100558.38
2023-05-11T11:05:38.820Z,100527.84
2023-05-11T11:08:56.939Z,100534.22
2023-05-11T11:12:09.828Z,100545.66
2023-05-11T11:15:12.268Z,100545.25
2023-05-11T11:18:24.589Z,100525.84
2023-05-11T11:21:41.269Z,100522.34
2023-05-11T11:24:45.634Z,100536.75
2023-05-11T11:27:50.731Z,100528.97
2023-05-11T11:31:27.583Z,100525.13
2023-05-11T11:34:29.986Z,100532.91
2023-05-11T11:38:06.081Z,100540.09
2023-05-11T11:41:09.429Z,100515.69
2023-05-11T11:44:22.091Z,100523.16
2023-05-11T11:47:26.888Z,100527.66
2023-05-11T11:50:29.537Z,100522.50
2023-05-11T11:53:37.944Z,100534.78
2023-05-11T11:56:41.894Z,100509.72
2023-05-11T11:59:47.391Z,100523.56
2023-05-11T12:02:49.868Z,100533.97
2023-05-11T12:05:56.643Z,100517.78
2023-05-11T12:08:59.234Z,100515.66
2023-05-11T12:12:02.431Z,100504.22
2023-05-11T12:15:08.707Z,100500.72
2023-05-11T12:18:23.744Z,100497.13
2023-05-11T12:21:28.314Z,100507.66
2023-05-11T12:24:30.847Z,100507.25
2023-05-11T12:27:33.191Z,100494.13
2023-05-11T12:30:35.787Z,100490.50
2023-05-11T12:33:48.673Z,100480.72
2023-05-11T12:36:53.386Z,100490.09
2023-05-11T12:39:56.922Z,100477.53
2023-05-11T12:43:00.835Z,100478.69
2023-05-11T12:46:03.987Z,100472.72
2023-05-11T12:49:06.974Z,100487.09
2023-05-11T12:52:11.237Z,100457.56
2023-05-11T12:55:17.083Z,100463.69
2023-05-11T12:58:19.851Z,100464.75
2023-05-11T13:01:25.314Z,100444.88
2023-05-11T13:04:31.394Z,100440.22
2023-05-11T13:07:33.741Z,100451.81
2023-05-11T13:10:36.125Z,100460.94
2023-05-11T13:13:38.538Z,100436.00
2023-05-11T13:16:40.973Z,100442.78
2023-05-11T13:19:43.593Z,100457.91
2023-05-11T13:22:47.544Z,100426.03
2023-05-11T13:25:54.109Z,100442.00
2023-05-11T13:29:09.503Z,100420.50
2023-05-11T13:32:12.868Z,100439.47
2023-05-11T13:35:15.949Z,100422.19
2023-05-11T13:38:18.351Z,100430.25
2023-05-11T13:41:21.018Z,100422.66
2023-05-11T13:44:23.468Z,100438.81
2023-05-11T13:47:26.026Z,100437.97
2023-05-11T13:50:28.382Z,100406.53
2023-05-11T13:53:30.992Z,100407.50
2023-05-11T13:56:33.407Z,100420.06
2023-05-11T13:59:35.778Z,100413.88
2023-05-11T14:02:38.500Z,100390.69
2023-05-11T14:05:41.352Z,100368.00
2023-05-11T14:08:45.198Z,100415.31
2023-05-11T14:11:47.565Z,100408.13
2023-05-11T14:14:49.939Z,100398.19
2023-05-11T14:17:52.576Z,100397.25
2023-05-11T14:20:55.111Z,100394.84
2023-05-11T14:24:10.868Z,100361.00
2023-05-11T14:27:14.635Z,100375.47
2023-05-11T14:30:16.974Z,100375.53
2023-05-11T14:33:19.356Z,100405.59
2023-05-11T14:36:21.749Z,100403.22
2023-05-11T14:39:24.151Z,100409.72
2023-05-11T14:42:26.525Z,100404.91
2023-05-11T14:45:28.971Z,100405.69
2023-05-11T14:48:31.400Z,100388.03
2023-05-11T14:51:33.778Z,100401.56
2023-05-11T14:54:36.134Z,100379.13
2023-05-11T14:57:38.488Z,100388.63
2023-05-11T15:00:40.853Z,100376.63
2023-05-11T15:03:43.380Z,100403.22
2023-05-11T15:06:46.207Z,100383.88
2023-05-11T15:09:49.770Z,100372.72
2023-05-11T15:12:52.209Z,100390.81
2023-05-11T15:15:54.653Z,100392.56
2023-05-11T15:18:57.032Z,100384.75
2023-05-11T15:21:59.472Z,100362.16
2023-05-11T15:25:02.012Z,100380.28
2023-05-11T15:28:04.435Z,100372.34
2023-05-11T15:31:06.775Z,100386.03
2023-05-11T15:34:09.200Z,100366.78
2023-05-11T15:37:11.584Z,100368.44
2023-05-11T15:40:13.924Z,100383.91
2023-05-11T15:43:16.890Z,100372.84
2023-05-11T15:46:19.411Z,100397.78
2023-05-11T15:49:22.349Z,100397.59
2023-05-11T15:52:24.716Z,100392.91
2023-05-11T15:55:27.234Z,100396.03
2023-05-11T15:58:29.812Z,100390.63
2023-05-11T16:01:32.247Z,100395.38
2023-05-11T16:04:34.663Z,100397.88
2023-05-11T16:07:37.119Z,100399.94
2023-05-11T16:10:39.644Z,100392.38
2023-05-11T16:13:41.992Z,100367.78
2023-05-11T16:16:44.479Z,100392.06
2023-05-11T16:19:46.820Z,100387.59
2023-05-11T16:22:49.229Z,100392.59
2023-05-11T16:25:51.682Z,100395.31
2023-05-11T16:28:54.067Z,100390.50
2023-05-11T16:31:57.411Z,100391.06
2023-05-11T16:35:00.418Z,100361.75
2023-05-11T16:38:02.817Z,100377.56
2023-05-11T16:41:05.280Z,100383.44
2023-05-11T16:44:07.656Z,100391.34
2023-05-11T16:47:09.981Z,100367.59
2023-05-11T16:50:14.802Z,100388.88
2023-05-11T16:53:17.743Z,100373.84
2023-05-11T16:56:20.067Z,100358.84
2023-05-11T16:59:22.476Z,100384.69
2023-05-11T17:02:24.889Z,100367.94
2023-05-11T17:05:27.288Z,100392.81
2023-05-11T17:08:29.692Z,100361.81
2023-05-11T17:11:32.180Z,100385.03
2023-05-11T17:14:34.513Z,100391.97
2023-05-11T17:17:38.015Z,100398.97
2023-05-11T17:20:40.502Z,100393.19
2023-05-11T17:23:43.750Z,100397.19
2023-05-11T17:26:48.420Z,100400.13
2023-05-11T17:29:51.316Z,100377.34
2023-05-11T17:32:53.879Z,100352.75
2023-05-11T17:35:56.426Z,100401.44
2023-05-11T17:38:58.800Z,100372.06
2023-05-11T17:42:01.219Z,100405.44
2023-05-11T17:45:03.836Z,100402.28
2023-05-11T17:48:06.203Z,100400.22
2023-05-11T17:51:08.605Z,100382.16
2023-05-11T17:54:11.854Z,100383.19
2023-05-11T17:57:14.299Z,100384.19
2023-05-11T18:00:17.144Z,100401.59
2023-05-11T18:03:19.765Z,100407.72
2023-05-11T18:06:22.340Z,100413.78
2023-05-11T18:09:24.888Z,100393.66
2023-05-11T18:12:27.694Z,100421.81
2023-05-11T18:15:30.119Z,100421.72
2023-05-11T18:18:32.634Z,100409.31
2023-05-11T18:21:35.237Z,100420.34
2023-05-11T18:24:37.569Z,100433.13
2023-05-11T18:27:39.989Z,100435.47
2023-05-11T18:30:42.573Z,100415.88
2023-05-11T18:33:45.118Z,100434.06
2023-05-11T18:36:47.560Z,100434.16
2023-05-11T18:39:50.360Z,100450.50
2023-05-11T18:42:53.724Z,100446.69
2023-05-11T18:45:56.138Z,100450.78
2023-05-11T18:48:58.579Z,100444.22
2023-05-11T18:52:00.940Z,100446.44
2023-05-11T18:55:04.219Z,100433.50
2023-05-11T18:58:06.706Z,100451.06
2023-05-11T19:01:09.324Z,100458.28
2023-05-11T19:04:11.776Z,100462.19
2023-05-11T19:07:14.503Z,100433.91
2023-05-11T19:10:18.150Z,100433.50
2023-05-11T19:13:20.674Z,100461.53
2023-05-11T19:16:23.198Z,100465.91
2023-05-11T19:19:25.558Z,100435.88
2023-05-11T19:22:27.973Z,100438.91
2023-05-11T19:25:30.583Z,100439.56
2023-05-11T19:28:32.909Z,100467.44
2023-05-11T19:31:36.612Z,100436.88
2023-05-11T19:34:39.049Z,100465.00
2023-05-11T19:37:42.074Z,100466.50
2023-05-11T19:40:46.369Z,100440.25
2023-05-11T19:43:49.156Z,100439.66
2023-05-11T19:46:51.839Z,100439.75
2023-05-11T19:49:54.220Z,100449.44
2023-05-11T19:52:56.670Z,100473.34
2023-05-11T19:55:59.772Z,100472.75
2023-05-11T19:59:04.870Z,100446.84
2023-05-11T20:02:07.551Z,100462.03
2023-05-11T20:05:10.390Z,100442.97
2023-05-11T20:08:13.171Z,100442.19
2023-05-11T20:11:15.618Z,100449.44
2023-05-11T20:14:17.989Z,100474.75
2023-05-11T20:17:21.486Z,100468.03
2023-05-11T20:20:23.957Z,100445.38
2023-05-11T20:23:27.287Z,100463.91
2023-05-11T20:26:30.927Z,100470.75
2023-05-11T20:29:33.291Z,100474.41
2023-05-11T20:32:37.341Z,100472.91
2023-05-11T20:35:39.827Z,100476.66
2023-05-11T20:38:42.189Z,100452.47
2023-05-11T20:41:44.852Z,100460.31
2023-05-11T20:44:50.312Z,100472.16
2023-05-11T20:47:52.804Z,100454.56
2023-05-11T20:50:55.448Z,100475.88
2023-05-11T20:53:57.769Z,100471.72
2023-05-11T20:57:01.427Z,100468.78
2023-05-11T21:00:07.558Z,100468.72
2023-05-11T21:03:10.196Z,100451.19
2023-05-11T21:06:12.847Z,100474.47
2023-05-11T21:09:15.235Z,100457.13
2023-05-11T21:12:17.587Z,100473.97
2023-05-11T21:15:20.033Z,100471.06
2023-05-11T21:18:22.392Z,100441.56
2023-05-11T21:21:24.816Z,100443.47
2023-05-11T21:24:27.222Z,100469.50
2023-05-11T21:27:30.101Z,100477.50
2023-05-11T21:30:32.486Z,100481.03
2023-05-11T21:33:35.120Z,100477.69
2023-05-11T21:36:39.116Z,100479.75
2023-05-11T21:39:41.665Z,100461.44
2023-05-11T21:42:44.004Z,100475.19
2023-05-11T21:45:47.292Z,100478.69
2023-05-11T21:48:49.683Z,100493.47
2023-05-11T21:51:52.363Z,100463.88
2023-05-11T21:54:54.773Z,100463.22
2023-05-11T21:57:57.580Z,100469.09
2023-05-11T22:00:59.995Z,100480.63
2023-05-11T22:04:02.579Z,100467.75
2023-05-11T22:07:05.184Z,100488.72
2023-05-11T22:10:08.254Z,100469.53
2023-05-11T22:13:10.838Z,100485.75
2023-05-11T22:16:13.265Z,100492.56
2023-05-11T22:19:15.680Z,100493.66
2023-05-11T22:22:18.032Z,100500.81
2023-05-11T22:25:20.553Z,100494.81
2023-05-11T22:28:22.981Z,100483.25
2023-05-11T22:31:26.851Z,100498.50
2023-05-11T22:34:29.277Z,100478.13
2023-05-11T22:37:31.928Z,100522.56
2023-05-11T22:40:34.575Z,100511.81
2023-05-11T22:43:37.006Z,100478.09
2023-05-11T22:46:39.330Z,100481.09
2023-05-11T22:49:41.763Z,100508.53
2023-05-11T22:52:44.109Z,100482.94
2023-05-11T22:55:46.641Z,100479.91
2023-05-11T22:58:50.067Z,100504.78
2023-05-11T23:01:52.443Z,100486.63
2023-05-11T23:04:55.041Z,100506.00
2023-05-11T23:07:59.839Z,100481.78
2023-05-11T23:11:02.351Z,100519.25
2023-05-11T23:14:04.801Z,100520.78
2023-05-11T23:17:07.294Z,100520.44
2023-05-11T23:20:10.423Z,100521.28
2023-05-11T23:23:12.790Z,100489.44
2023-05-11T23:26:15.241Z,100517.06
2023-05-11T23:29:17.723Z,100507.09
2023-05-11T23:32:20.155Z,100484.03
2023-05-11T23:35:22.618Z,100517.03
2023-05-11T23:38:25.902Z,100515.81
2023-05-11T23:41:28.236Z,100521.72
2023-05-11T23:44:30.598Z,100497.13
2023-05-11T23:47:33.469Z,100522.91
2023-05-11T23:50:36.118Z,100489.44
2023-05-11T23:53:38.449Z,100512.06
2023-05-11T23:56:40.789Z,100483.75
2023-05-11T23:59:43.136Z,100522.63
